sensor_id;sensor_type;location;lat;lon;timestamp;P1;P2;P0
54869;PMS5003;40756;-37.950;145.008;2023-02-10T00:01:46;18;17;
54869;PMS5003;40756;-37.950;145.008;2023-02-10T00:04:16;17;16;
54869;PMS5003;40756;-37.950;145.008;2023-02-10T00:06:45;16;14;
54869;PMS5003;40756;-37.950;145.008;2023-02-10T00:09:14;15;14;
54869;PMS5003;40756;-37.950;145.008;2023-02-10T00:11:44;11;10;
54869;PMS5003;40756;-37.950;145.008;2023-02-10T00:14:14;14;14;
54869;PMS5003;40756;-37.950;145.008;2023-02-10T00:16:44;19;18;
54869;PMS5003;40756;-37.950;145.008;2023-02-10T00:19:16;16;16;
54869;PMS5003;40756;-37.950;145.008;2023-02-10T00:21:46;20;18;
54869;PMS5003;40756;-37.950;145.008;2023-02-10T00:24:16;17;15;
54869;PMS5003;40756;-37.950;145.008;2023-02-10T00:26:46;16;15;
54869;PMS5003;40756;-37.950;145.008;2023-02-10T00:29:16;17;15;
54869;PMS5003;40756;-37.950;145.008;2023-02-10T00:31:46;16;15;
54869;PMS5003;40756;-37.950;145.008;2023-02-10T00:34:16;15;15;
54869;PMS5003;40756;-37.950;145.008;2023-02-10T00:36:48;15;15;
54869;PMS5003;40756;-37.950;145.008;2023-02-10T00:39:18;16;15;
54869;PMS5003;40756;-37.950;145.008;2023-02-10T00:41:47;17;17;
54869;PMS5003;40756;-37.950;145.008;2023-02-10T00:44:16;13;13;
54869;PMS5003;40756;-37.950;145.008;2023-02-10T00:46:46;15;15;
54869;PMS5003;40756;-37.950;145.008;2023-02-10T00:49:15;20;17;
54869;PMS5003;40756;-37.950;145.008;2023-02-10T00:51:45;14;13;
54869;PMS5003;40756;-37.950;145.008;2023-02-10T00:54:14;20;17;
54869;PMS5003;40756;-37.950;145.008;2023-02-10T00:56:43;19;16;
54869;PMS5003;40756;-37.950;145.008;2023-02-10T00:59:13;16;16;
54869;PMS5003;40756;-37.950;145.008;2023-02-10T01:01:42;18;17;
54869;PMS5003;40756;-37.950;145.008;2023-02-10T01:04:12;16;15;
54869;PMS5003;40756;-37.950;145.008;2023-02-10T01:06:41;16;15;
54869;PMS5003;40756;-37.950;145.008;2023-02-10T01:09:10;16;16;
54869;PMS5003;40756;-37.950;145.008;2023-02-10T01:11:40;14;14;
54869;PMS5003;40756;-37.950;145.008;2023-02-10T01:14:09;16;15;
54869;PMS5003;40756;-37.950;145.008;2023-02-10T01:16:39;15;14;
54869;PMS5003;40756;-37.950;145.008;2023-02-10T01:19:09;14;14;
54869;PMS5003;40756;-37.950;145.008;2023-02-10T01:21:38;16;14;
54869;PMS5003;40756;-37.950;145.008;2023-02-10T01:24:09;14;14;
54869;PMS5003;40756;-37.950;145.008;2023-02-10T01:26:39;15;13;
54869;PMS5003;40756;-37.950;145.008;2023-02-10T01:29:08;13;13;
54869;PMS5003;40756;-37.950;145.008;2023-02-10T01:31:39;15;14;
54869;PMS5003;40756;-37.950;145.008;2023-02-10T01:34:09;17;16;
54869;PMS5003;40756;-37.950;145.008;2023-02-10T01:36:38;14;13;
54869;PMS5003;40756;-37.950;145.008;2023-02-10T01:39:08;14;13;
54869;PMS5003;40756;-37.950;145.008;2023-02-10T01:41:37;14;12;
54869;PMS5003;40756;-37.950;145.008;2023-02-10T01:45:10;13;12;
54869;PMS5003;40756;-37.950;145.008;2023-02-10T01:47:44;11;11;
54869;PMS5003;40756;-37.950;145.008;2023-02-10T01:50:16;14;14;
54869;PMS5003;40756;-37.950;145.008;2023-02-10T01:52:47;13;12;
54869;PMS5003;40756;-37.950;145.008;2023-02-10T01:55:19;13;13;
54869;PMS5003;40756;-37.950;145.008;2023-02-10T01:57:51;14;14;
54869;PMS5003;40756;-37.950;145.008;2023-02-10T02:00:21;13;13;
54869;PMS5003;40756;-37.950;145.008;2023-02-10T02:02:52;12;10;
54869;PMS5003;40756;-37.950;145.008;2023-02-10T02:05:29;11;10;
54869;PMS5003;40756;-37.950;145.008;2023-02-10T02:08:02;12;12;
54869;PMS5003;40756;-37.950;145.008;2023-02-10T02:10:38;14;13;
54869;PMS5003;40756;-37.950;145.008;2023-02-10T02:13:16;14;14;
54869;PMS5003;40756;-37.950;145.008;2023-02-10T02:15:53;20;19;
54869;PMS5003;40756;-37.950;145.008;2023-02-10T02:18:29;26;25;
54869;PMS5003;40756;-37.950;145.008;2023-02-10T02:21:15;13;12;
54869;PMS5003;40756;-37.950;145.008;2023-02-10T02:25:09;19;18;
54869;PMS5003;40756;-37.950;145.008;2023-02-10T02:27:51;16;15;
54869;PMS5003;40756;-37.950;145.008;2023-02-10T02:30:36;12;11;
54869;PMS5003;40756;-37.950;145.008;2023-02-10T02:33:40;13;13;
54869;PMS5003;40756;-37.950;145.008;2023-02-10T02:36:16;14;14;
54869;PMS5003;40756;-37.950;145.008;2023-02-10T02:38:52;16;16;
54869;PMS5003;40756;-37.950;145.008;2023-02-10T02:41:29;17;14;
54869;PMS5003;40756;-37.950;145.008;2023-02-10T02:44:00;14;14;
54869;PMS5003;40756;-37.950;145.008;2023-02-10T02:46:35;18;16;
54869;PMS5003;40756;-37.950;145.008;2023-02-10T02:49:23;13;13;
54869;PMS5003;40756;-37.950;145.008;2023-02-10T02:52:02;13;13;
54869;PMS5003;40756;-37.950;145.008;2023-02-10T02:54:40;13;11;
54869;PMS5003;40756;-37.950;145.008;2023-02-10T02:57:20;16;16;
54869;PMS5003;40756;-37.950;145.008;2023-02-10T02:59:57;12;12;
54869;PMS5003;40756;-37.950;145.008;2023-02-10T03:02:32;13;13;
54869;PMS5003;40756;-37.950;145.008;2023-02-10T03:05:05;12;12;
54869;PMS5003;40756;-37.950;145.008;2023-02-10T03:07:35;11;11;
54869;PMS5003;40756;-37.950;145.008;2023-02-10T03:10:04;9;9;
54869;PMS5003;40756;-37.950;145.008;2023-02-10T03:12:34;9;9;
54869;PMS5003;40756;-37.950;145.008;2023-02-10T03:15:04;13;12;
54869;PMS5003;40756;-37.950;145.008;2023-02-10T03:17:34;10;10;
54869;PMS5003;40756;-37.950;145.008;2023-02-10T03:20:03;10;10;
54869;PMS5003;40756;-37.950;145.008;2023-02-10T03:22:33;10;9;
54869;PMS5003;40756;-37.950;145.008;2023-02-10T03:25:02;8;8;
54869;PMS5003;40756;-37.950;145.008;2023-02-10T03:27:32;11;10;
54869;PMS5003;40756;-37.950;145.008;2023-02-10T03:30:02;8;8;
54869;PMS5003;40756;-37.950;145.008;2023-02-10T03:32:32;7;7;
54869;PMS5003;40756;-37.950;145.008;2023-02-10T03:35:02;8;7;
54869;PMS5003;40756;-37.950;145.008;2023-02-10T03:37:31;9;8;
54869;PMS5003;40756;-37.950;145.008;2023-02-10T03:40:00;7;7;
54869;PMS5003;40756;-37.950;145.008;2023-02-10T03:42:30;8;8;
54869;PMS5003;40756;-37.950;145.008;2023-02-10T03:44:59;7;7;
54869;PMS5003;40756;-37.950;145.008;2023-02-10T03:47:28;7;7;
54869;PMS5003;40756;-37.950;145.008;2023-02-10T03:49:57;7;7;
54869;PMS5003;40756;-37.950;145.008;2023-02-10T03:52:27;8;7;
54869;PMS5003;40756;-37.950;145.008;2023-02-10T03:54:56;7;6;
54869;PMS5003;40756;-37.950;145.008;2023-02-10T03:57:26;9;8;
54869;PMS5003;40756;-37.950;145.008;2023-02-10T03:59:55;8;7;
54869;PMS5003;40756;-37.950;145.008;2023-02-10T04:02:24;8;7;
54869;PMS5003;40756;-37.950;145.008;2023-02-10T04:04:54;7;7;
54869;PMS5003;40756;-37.950;145.008;2023-02-10T04:07:24;7;7;
54869;PMS5003;40756;-37.950;145.008;2023-02-10T04:09:53;7;7;
54869;PMS5003;40756;-37.950;145.008;2023-02-10T04:12:23;9;9;
54869;PMS5003;40756;-37.950;145.008;2023-02-10T04:14:53;6;6;
54869;PMS5003;40756;-37.950;145.008;2023-02-10T04:17:22;8;7;
54869;PMS5003;40756;-37.950;145.008;2023-02-10T04:19:52;6;6;
54869;PMS5003;40756;-37.950;145.008;2023-02-10T04:22:21;6;6;
54869;PMS5003;40756;-37.950;145.008;2023-02-10T04:24:50;7;6;
54869;PMS5003;40756;-37.950;145.008;2023-02-10T04:27:19;6;6;
54869;PMS5003;40756;-37.950;145.008;2023-02-10T04:29:49;6;6;
54869;PMS5003;40756;-37.950;145.008;2023-02-10T04:32:18;6;6;
54869;PMS5003;40756;-37.950;145.008;2023-02-10T04:34:48;6;6;
54869;PMS5003;40756;-37.950;145.008;2023-02-10T04:37:18;7;7;
54869;PMS5003;40756;-37.950;145.008;2023-02-10T04:39:48;7;6;
54869;PMS5003;40756;-37.950;145.008;2023-02-10T04:42:17;7;7;
54869;PMS5003;40756;-37.950;145.008;2023-02-10T04:44:46;7;7;
54869;PMS5003;40756;-37.950;145.008;2023-02-10T04:47:16;6;6;
54869;PMS5003;40756;-37.950;145.008;2023-02-10T04:49:45;6;6;
54869;PMS5003;40756;-37.950;145.008;2023-02-10T04:52:14;8;7;
54869;PMS5003;40756;-37.950;145.008;2023-02-10T04:54:47;9;7;
54869;PMS5003;40756;-37.950;145.008;2023-02-10T04:57:16;6;6;
54869;PMS5003;40756;-37.950;145.008;2023-02-10T04:59:48;8;6;
54869;PMS5003;40756;-37.950;145.008;2023-02-10T05:02:22;6;6;
54869;PMS5003;40756;-37.950;145.008;2023-02-10T05:04:51;7;7;
54869;PMS5003;40756;-37.950;145.008;2023-02-10T05:07:20;5;5;
54869;PMS5003;40756;-37.950;145.008;2023-02-10T05:09:49;6;5;
54869;PMS5003;40756;-37.950;145.008;2023-02-10T05:12:19;4;3;
54869;PMS5003;40756;-37.950;145.008;2023-02-10T05:14:48;6;4;
54869;PMS5003;40756;-37.950;145.008;2023-02-10T05:17:17;5;5;
54869;PMS5003;40756;-37.950;145.008;2023-02-10T05:19:46;4;3;
54869;PMS5003;40756;-37.950;145.008;2023-02-10T05:22:16;5;4;
54869;PMS5003;40756;-37.950;145.008;2023-02-10T05:24:45;4;3;
54869;PMS5003;40756;-37.950;145.008;2023-02-10T05:27:14;4;4;
54869;PMS5003;40756;-37.950;145.008;2023-02-10T05:29:43;9;8;
54869;PMS5003;40756;-37.950;145.008;2023-02-10T05:32:13;6;5;
54869;PMS5003;40756;-37.950;145.008;2023-02-10T05:34:42;7;4;
54869;PMS5003;40756;-37.950;145.008;2023-02-10T05:37:12;8;6;
54869;PMS5003;40756;-37.950;145.008;2023-02-10T05:39:42;4;4;
54869;PMS5003;40756;-37.950;145.008;2023-02-10T05:42:11;8;5;
54869;PMS5003;40756;-37.950;145.008;2023-02-10T05:44:41;6;5;
54869;PMS5003;40756;-37.950;145.008;2023-02-10T05:47:10;6;5;
54869;PMS5003;40756;-37.950;145.008;2023-02-10T05:49:39;7;7;
54869;PMS5003;40756;-37.950;145.008;2023-02-10T05:52:09;6;5;
54869;PMS5003;40756;-37.950;145.008;2023-02-10T05:54:38;3;3;
54869;PMS5003;40756;-37.950;145.008;2023-02-10T05:57:09;4;4;
54869;PMS5003;40756;-37.950;145.008;2023-02-10T05:59:38;4;4;
54869;PMS5003;40756;-37.950;145.008;2023-02-10T06:02:11;6;5;
54869;PMS5003;40756;-37.950;145.008;2023-02-10T06:04:42;6;6;
54869;PMS5003;40756;-37.950;145.008;2023-02-10T06:07:11;5;5;
54869;PMS5003;40756;-37.950;145.008;2023-02-10T06:09:41;7;6;
54869;PMS5003;40756;-37.950;145.008;2023-02-10T06:12:11;6;6;
54869;PMS5003;40756;-37.950;145.008;2023-02-10T06:14:40;7;6;
54869;PMS5003;40756;-37.950;145.008;2023-02-10T06:17:09;5;5;
54869;PMS5003;40756;-37.950;145.008;2023-02-10T06:19:39;7;6;
54869;PMS5003;40756;-37.950;145.008;2023-02-10T06:22:09;8;6;
54869;PMS5003;40756;-37.950;145.008;2023-02-10T06:24:39;5;5;
54869;PMS5003;40756;-37.950;145.008;2023-02-10T06:27:09;7;6;
54869;PMS5003;40756;-37.950;145.008;2023-02-10T06:29:39;7;6;
54869;PMS5003;40756;-37.950;145.008;2023-02-10T06:32:08;9;7;
54869;PMS5003;40756;-37.950;145.008;2023-02-10T06:34:37;7;7;
54869;PMS5003;40756;-37.950;145.008;2023-02-10T06:37:07;8;8;
54869;PMS5003;40756;-37.950;145.008;2023-02-10T06:39:36;6;5;
54869;PMS5003;40756;-37.950;145.008;2023-02-10T06:42:06;5;5;
54869;PMS5003;40756;-37.950;145.008;2023-02-10T06:44:35;7;6;
54869;PMS5003;40756;-37.950;145.008;2023-02-10T06:47:05;5;4;
54869;PMS5003;40756;-37.950;145.008;2023-02-10T06:49:34;6;6;
54869;PMS5003;40756;-37.950;145.008;2023-02-10T06:52:04;8;7;
54869;PMS5003;40756;-37.950;145.008;2023-02-10T06:54:34;9;8;
54869;PMS5003;40756;-37.950;145.008;2023-02-10T06:57:03;6;6;
54869;PMS5003;40756;-37.950;145.008;2023-02-10T06:59:32;8;7;
54869;PMS5003;40756;-37.950;145.008;2023-02-10T07:02:01;8;6;
54869;PMS5003;40756;-37.950;145.008;2023-02-10T07:04:31;7;6;
54869;PMS5003;40756;-37.950;145.008;2023-02-10T07:07:00;7;5;
54869;PMS5003;40756;-37.950;145.008;2023-02-10T07:09:30;6;6;
54869;PMS5003;40756;-37.950;145.008;2023-02-10T07:11:59;7;6;
54869;PMS5003;40756;-37.950;145.008;2023-02-10T07:14:28;5;5;
54869;PMS5003;40756;-37.950;145.008;2023-02-10T07:16:57;6;6;
54869;PMS5003;40756;-37.950;145.008;2023-02-10T07:19:27;4;4;
54869;PMS5003;40756;-37.950;145.008;2023-02-10T07:21:57;8;7;
54869;PMS5003;40756;-37.950;145.008;2023-02-10T07:24:27;7;6;
54869;PMS5003;40756;-37.950;145.008;2023-02-10T07:26:56;6;6;
54869;PMS5003;40756;-37.950;145.008;2023-02-10T07:29:26;5;5;
54869;PMS5003;40756;-37.950;145.008;2023-02-10T07:31:55;8;8;
54869;PMS5003;40756;-37.950;145.008;2023-02-10T07:34:25;9;7;
54869;PMS5003;40756;-37.950;145.008;2023-02-10T07:36:55;6;5;
54869;PMS5003;40756;-37.950;145.008;2023-02-10T07:39:26;10;10;
54869;PMS5003;40756;-37.950;145.008;2023-02-10T07:41:56;6;5;
54869;PMS5003;40756;-37.950;145.008;2023-02-10T07:44:26;8;8;
54869;PMS5003;40756;-37.950;145.008;2023-02-10T07:46:56;7;7;
54869;PMS5003;40756;-37.950;145.008;2023-02-10T07:49:25;7;7;
54869;PMS5003;40756;-37.950;145.008;2023-02-10T07:51:54;8;6;
54869;PMS5003;40756;-37.950;145.008;2023-02-10T07:54:24;8;6;
54869;PMS5003;40756;-37.950;145.008;2023-02-10T07:56:53;9;9;
54869;PMS5003;40756;-37.950;145.008;2023-02-10T07:59:24;13;13;
54869;PMS5003;40756;-37.950;145.008;2023-02-10T08:01:53;9;9;
54869;PMS5003;40756;-37.950;145.008;2023-02-10T08:04:23;7;6;
54869;PMS5003;40756;-37.950;145.008;2023-02-10T08:06:53;8;8;
54869;PMS5003;40756;-37.950;145.008;2023-02-10T08:09:24;7;7;
54869;PMS5003;40756;-37.950;145.008;2023-02-10T08:11:53;8;8;
54869;PMS5003;40756;-37.950;145.008;2023-02-10T08:14:22;11;10;
54869;PMS5003;40756;-37.950;145.008;2023-02-10T08:16:52;9;9;
54869;PMS5003;40756;-37.950;145.008;2023-02-10T08:19:22;9;8;
54869;PMS5003;40756;-37.950;145.008;2023-02-10T08:21:51;5;5;
54869;PMS5003;40756;-37.950;145.008;2023-02-10T08:24:21;7;7;
54869;PMS5003;40756;-37.950;145.008;2023-02-10T08:26:50;8;7;
54869;PMS5003;40756;-37.950;145.008;2023-02-10T08:29:19;7;7;
54869;PMS5003;40756;-37.950;145.008;2023-02-10T08:31:49;7;7;
54869;PMS5003;40756;-37.950;145.008;2023-02-10T08:34:20;8;7;
54869;PMS5003;40756;-37.950;145.008;2023-02-10T08:36:49;12;10;
54869;PMS5003;40756;-37.950;145.008;2023-02-10T08:39:19;10;10;
54869;PMS5003;40756;-37.950;145.008;2023-02-10T08:41:49;9;9;
54869;PMS5003;40756;-37.950;145.008;2023-02-10T08:44:18;10;9;
54869;PMS5003;40756;-37.950;145.008;2023-02-10T08:46:48;10;9;
54869;PMS5003;40756;-37.950;145.008;2023-02-10T08:49:18;10;10;
54869;PMS5003;40756;-37.950;145.008;2023-02-10T08:51:47;9;8;
54869;PMS5003;40756;-37.950;145.008;2023-02-10T08:54:17;34;33;
54869;PMS5003;40756;-37.950;145.008;2023-02-10T08:56:46;16;15;
54869;PMS5003;40756;-37.950;145.008;2023-02-10T08:59:20;10;9;
54869;PMS5003;40756;-37.950;145.008;2023-02-10T09:01:50;8;8;
54869;PMS5003;40756;-37.950;145.008;2023-02-10T09:04:20;13;12;
54869;PMS5003;40756;-37.950;145.008;2023-02-10T09:06:50;9;9;
54869;PMS5003;40756;-37.950;145.008;2023-02-10T09:09:20;10;9;
54869;PMS5003;40756;-37.950;145.008;2023-02-10T09:11:51;9;9;
54869;PMS5003;40756;-37.950;145.008;2023-02-10T09:14:21;8;8;
54869;PMS5003;40756;-37.950;145.008;2023-02-10T09:16:51;12;12;
54869;PMS5003;40756;-37.950;145.008;2023-02-10T09:19:21;9;9;
54869;PMS5003;40756;-37.950;145.008;2023-02-10T09:21:50;9;8;
54869;PMS5003;40756;-37.950;145.008;2023-02-10T09:24:19;8;8;
54869;PMS5003;40756;-37.950;145.008;2023-02-10T09:26:49;11;11;
54869;PMS5003;40756;-37.950;145.008;2023-02-10T09:29:19;12;11;
54869;PMS5003;40756;-37.950;145.008;2023-02-10T09:31:48;11;11;
54869;PMS5003;40756;-37.950;145.008;2023-02-10T09:34:18;11;11;
54869;PMS5003;40756;-37.950;145.008;2023-02-10T09:36:47;9;9;
54869;PMS5003;40756;-37.950;145.008;2023-02-10T09:39:16;12;11;
54869;PMS5003;40756;-37.950;145.008;2023-02-10T09:41:50;10;10;
54869;PMS5003;40756;-37.950;145.008;2023-02-10T09:44:24;12;11;
54869;PMS5003;40756;-37.950;145.008;2023-02-10T09:47:11;14;14;
54869;PMS5003;40756;-37.950;145.008;2023-02-10T09:50:06;12;11;
54869;PMS5003;40756;-37.950;145.008;2023-02-10T09:53:16;12;11;
54869;PMS5003;40756;-37.950;145.008;2023-02-10T09:55:49;10;10;
54869;PMS5003;40756;-37.950;145.008;2023-02-10T09:58:24;11;11;
54869;PMS5003;40756;-37.950;145.008;2023-02-10T10:00:58;9;8;
54869;PMS5003;40756;-37.950;145.008;2023-02-10T10:03:34;13;11;
54869;PMS5003;40756;-37.950;145.008;2023-02-10T10:06:12;10;10;
54869;PMS5003;40756;-37.950;145.008;2023-02-10T10:08:50;12;11;
54869;PMS5003;40756;-37.950;145.008;2023-02-10T10:11:30;12;12;
54869;PMS5003;40756;-37.950;145.008;2023-02-10T10:14:10;13;13;
54869;PMS5003;40756;-37.950;145.008;2023-02-10T10:16:57;14;13;
54869;PMS5003;40756;-37.950;145.008;2023-02-10T10:19:42;13;13;
54869;PMS5003;40756;-37.950;145.008;2023-02-10T10:22:26;10;10;
54869;PMS5003;40756;-37.950;145.008;2023-02-10T10:25:10;11;11;
54869;PMS5003;40756;-37.950;145.008;2023-02-10T10:27:53;14;14;
54869;PMS5003;40756;-37.950;145.008;2023-02-10T10:30:32;12;12;
54869;PMS5003;40756;-37.950;145.008;2023-02-10T10:33:13;14;13;
54869;PMS5003;40756;-37.950;145.008;2023-02-10T10:35:49;13;11;
54869;PMS5003;40756;-37.950;145.008;2023-02-10T10:38:20;12;12;
54869;PMS5003;40756;-37.950;145.008;2023-02-10T10:40:52;13;12;
54869;PMS5003;40756;-37.950;145.008;2023-02-10T10:43:27;17;16;
54869;PMS5003;40756;-37.950;145.008;2023-02-10T10:46:01;13;13;
54869;PMS5003;40756;-37.950;145.008;2023-02-10T10:48:34;16;16;
54869;PMS5003;40756;-37.950;145.008;2023-02-10T10:51:08;13;12;
54869;PMS5003;40756;-37.950;145.008;2023-02-10T10:53:40;15;14;
54869;PMS5003;40756;-37.950;145.008;2023-02-10T10:56:15;14;14;
54869;PMS5003;40756;-37.950;145.008;2023-02-10T10:58:50;17;15;
54869;PMS5003;40756;-37.950;145.008;2023-02-10T11:01:30;16;15;
54869;PMS5003;40756;-37.950;145.008;2023-02-10T11:04:04;17;17;
54869;PMS5003;40756;-37.950;145.008;2023-02-10T11:06:39;17;15;
54869;PMS5003;40756;-37.950;145.008;2023-02-10T11:09:20;17;16;
54869;PMS5003;40756;-37.950;145.008;2023-02-10T11:11:54;22;19;
54869;PMS5003;40756;-37.950;145.008;2023-02-10T11:14:35;13;13;
54869;PMS5003;40756;-37.950;145.008;2023-02-10T11:17:15;13;13;
54869;PMS5003;40756;-37.950;145.008;2023-02-10T11:19:56;12;12;
54869;PMS5003;40756;-37.950;145.008;2023-02-10T11:22:28;17;16;
54869;PMS5003;40756;-37.950;145.008;2023-02-10T11:24:58;16;15;
54869;PMS5003;40756;-37.950;145.008;2023-02-10T11:27:28;13;13;
54869;PMS5003;40756;-37.950;145.008;2023-02-10T11:29:58;17;15;
54869;PMS5003;40756;-37.950;145.008;2023-02-10T11:32:29;14;13;
54869;PMS5003;40756;-37.950;145.008;2023-02-10T11:35:02;11;11;
54869;PMS5003;40756;-37.950;145.008;2023-02-10T11:37:35;15;14;
54869;PMS5003;40756;-37.950;145.008;2023-02-10T11:40:16;14;14;
54869;PMS5003;40756;-37.950;145.008;2023-02-10T11:42:49;17;15;
54869;PMS5003;40756;-37.950;145.008;2023-02-10T11:45:21;14;14;
54869;PMS5003;40756;-37.950;145.008;2023-02-10T11:48:00;14;14;
54869;PMS5003;40756;-37.950;145.008;2023-02-10T11:50:34;15;13;
54869;PMS5003;40756;-37.950;145.008;2023-02-10T11:53:04;11;11;
54869;PMS5003;40756;-37.950;145.008;2023-02-10T11:55:43;11;10;
54869;PMS5003;40756;-37.950;145.008;2023-02-10T11:58:26;13;12;
54869;PMS5003;40756;-37.950;145.008;2023-02-10T12:01:08;13;12;
54869;PMS5003;40756;-37.950;145.008;2023-02-10T12:03:48;12;11;
54869;PMS5003;40756;-37.950;145.008;2023-02-10T12:06:32;12;11;
54869;PMS5003;40756;-37.950;145.008;2023-02-10T12:09:07;13;12;
54869;PMS5003;40756;-37.950;145.008;2023-02-10T12:11:45;14;13;
54869;PMS5003;40756;-37.950;145.008;2023-02-10T12:14:27;11;11;
54869;PMS5003;40756;-37.950;145.008;2023-02-10T12:17:09;9;9;
54869;PMS5003;40756;-37.950;145.008;2023-02-10T12:19:57;14;13;
54869;PMS5003;40756;-37.950;145.008;2023-02-10T12:22:42;12;12;
54869;PMS5003;40756;-37.950;145.008;2023-02-10T12:25:23;9;8;
54869;PMS5003;40756;-37.950;145.008;2023-02-10T12:28:01;13;9;
54869;PMS5003;40756;-37.950;145.008;2023-02-10T12:30:39;10;9;
54869;PMS5003;40756;-37.950;145.008;2023-02-10T12:33:29;9;9;
54869;PMS5003;40756;-37.950;145.008;2023-02-10T12:36:11;11;9;
54869;PMS5003;40756;-37.950;145.008;2023-02-10T12:38:54;8;8;
54869;PMS5003;40756;-37.950;145.008;2023-02-10T12:41:33;9;9;
54869;PMS5003;40756;-37.950;145.008;2023-02-10T12:44:19;8;8;
54869;PMS5003;40756;-37.950;145.008;2023-02-10T12:47:05;8;8;
54869;PMS5003;40756;-37.950;145.008;2023-02-10T12:49:51;8;8;
54869;PMS5003;40756;-37.950;145.008;2023-02-10T12:52:32;7;6;
54869;PMS5003;40756;-37.950;145.008;2023-02-10T12:55:12;9;9;
54869;PMS5003;40756;-37.950;145.008;2023-02-10T12:57:46;10;10;
54869;PMS5003;40756;-37.950;145.008;2023-02-10T13:00:22;9;8;
54869;PMS5003;40756;-37.950;145.008;2023-02-10T13:02:57;8;8;
54869;PMS5003;40756;-37.950;145.008;2023-02-10T13:05:35;9;8;
54869;PMS5003;40756;-37.950;145.008;2023-02-10T13:08:09;7;7;
54869;PMS5003;40756;-37.950;145.008;2023-02-10T13:11:33;9;8;
54869;PMS5003;40756;-37.950;145.008;2023-02-10T13:14:11;9;8;
54869;PMS5003;40756;-37.950;145.008;2023-02-10T13:16:50;10;10;
54869;PMS5003;40756;-37.950;145.008;2023-02-10T13:19:24;8;8;
54869;PMS5003;40756;-37.950;145.008;2023-02-10T13:22:02;8;8;
54869;PMS5003;40756;-37.950;145.008;2023-02-10T13:24:38;7;7;
54869;PMS5003;40756;-37.950;145.008;2023-02-10T13:27:19;10;10;
54869;PMS5003;40756;-37.950;145.008;2023-02-10T13:30:03;11;10;
54869;PMS5003;40756;-37.950;145.008;2023-02-10T13:32:49;9;9;
54869;PMS5003;40756;-37.950;145.008;2023-02-10T13:35:27;9;9;
54869;PMS5003;40756;-37.950;145.008;2023-02-10T13:37:58;9;9;
54869;PMS5003;40756;-37.950;145.008;2023-02-10T13:40:44;7;7;
54869;PMS5003;40756;-37.950;145.008;2023-02-10T13:43:21;8;8;
54869;PMS5003;40756;-37.950;145.008;2023-02-10T13:45:55;9;9;
54869;PMS5003;40756;-37.950;145.008;2023-02-10T13:48:27;8;8;
54869;PMS5003;40756;-37.950;145.008;2023-02-10T13:51:00;8;8;
54869;PMS5003;40756;-37.950;145.008;2023-02-10T13:53:38;10;9;
54869;PMS5003;40756;-37.950;145.008;2023-02-10T13:56:14;6;6;
54869;PMS5003;40756;-37.950;145.008;2023-02-10T13:58:55;11;9;
54869;PMS5003;40756;-37.950;145.008;2023-02-10T14:01:31;8;8;
54869;PMS5003;40756;-37.950;145.008;2023-02-10T14:04:02;10;9;
54869;PMS5003;40756;-37.950;145.008;2023-02-10T14:06:34;8;8;
54869;PMS5003;40756;-37.950;145.008;2023-02-10T14:09:06;8;8;
54869;PMS5003;40756;-37.950;145.008;2023-02-10T14:11:49;10;9;
54869;PMS5003;40756;-37.950;145.008;2023-02-10T14:14:21;12;11;
54869;PMS5003;40756;-37.950;145.008;2023-02-10T14:17:02;10;10;
54869;PMS5003;40756;-37.950;145.008;2023-02-10T14:19:33;10;10;
54869;PMS5003;40756;-37.950;145.008;2023-02-10T14:22:05;10;9;
54869;PMS5003;40756;-37.950;145.008;2023-02-10T14:24:48;11;10;
54869;PMS5003;40756;-37.950;145.008;2023-02-10T14:27:19;11;10;
54869;PMS5003;40756;-37.950;145.008;2023-02-10T14:29:51;10;10;
54869;PMS5003;40756;-37.950;145.008;2023-02-10T14:32:24;9;9;
54869;PMS5003;40756;-37.950;145.008;2023-02-10T14:34:57;11;10;
54869;PMS5003;40756;-37.950;145.008;2023-02-10T14:37:29;9;9;
54869;PMS5003;40756;-37.950;145.008;2023-02-10T14:39:58;12;11;
54869;PMS5003;40756;-37.950;145.008;2023-02-10T14:42:30;10;10;
54869;PMS5003;40756;-37.950;145.008;2023-02-10T14:45:01;8;8;
54869;PMS5003;40756;-37.950;145.008;2023-02-10T14:47:32;12;11;
54869;PMS5003;40756;-37.950;145.008;2023-02-10T14:50:05;13;13;
54869;PMS5003;40756;-37.950;145.008;2023-02-10T14:52:49;10;10;
54869;PMS5003;40756;-37.950;145.008;2023-02-10T14:55:27;12;10;
54869;PMS5003;40756;-37.950;145.008;2023-02-10T14:58:04;12;10;
54869;PMS5003;40756;-37.950;145.008;2023-02-10T15:00:37;12;12;
54869;PMS5003;40756;-37.950;145.008;2023-02-10T15:03:09;9;9;
54869;PMS5003;40756;-37.950;145.008;2023-02-10T15:05:45;11;10;
54869;PMS5003;40756;-37.950;145.008;2023-02-10T15:08:17;9;9;
54869;PMS5003;40756;-37.950;145.008;2023-02-10T15:10:51;9;9;
54869;PMS5003;40756;-37.950;145.008;2023-02-10T15:13:24;13;11;
54869;PMS5003;40756;-37.950;145.008;2023-02-10T15:16:00;14;12;
54869;PMS5003;40756;-37.950;145.008;2023-02-10T15:18:32;14;12;
54869;PMS5003;40756;-37.950;145.008;2023-02-10T15:21:23;8;8;
54869;PMS5003;40756;-37.950;145.008;2023-02-10T15:23:58;11;11;
54869;PMS5003;40756;-37.950;145.008;2023-02-10T15:26:28;11;11;
54869;PMS5003;40756;-37.950;145.008;2023-02-10T15:29:00;11;10;
54869;PMS5003;40756;-37.950;145.008;2023-02-10T15:31:33;11;10;
54869;PMS5003;40756;-37.950;145.008;2023-02-10T15:34:03;10;10;
54869;PMS5003;40756;-37.950;145.008;2023-02-10T15:36:45;12;12;
54869;PMS5003;40756;-37.950;145.008;2023-02-10T15:39:19;11;11;
54869;PMS5003;40756;-37.950;145.008;2023-02-10T15:42:03;14;13;
54869;PMS5003;40756;-37.950;145.008;2023-02-10T15:44:47;10;9;
54869;PMS5003;40756;-37.950;145.008;2023-02-10T15:47:35;12;11;
54869;PMS5003;40756;-37.950;145.008;2023-02-10T15:50:08;11;11;
54869;PMS5003;40756;-37.950;145.008;2023-02-10T15:52:41;11;11;
54869;PMS5003;40756;-37.950;145.008;2023-02-10T15:55:15;13;12;
54869;PMS5003;40756;-37.950;145.008;2023-02-10T15:57:48;11;11;
54869;PMS5003;40756;-37.950;145.008;2023-02-10T16:03:08;11;10;
54869;PMS5003;40756;-37.950;145.008;2023-02-10T16:05:38;9;9;
54869;PMS5003;40756;-37.950;145.008;2023-02-10T16:08:11;13;10;
54869;PMS5003;40756;-37.950;145.008;2023-02-10T16:10:45;11;10;
54869;PMS5003;40756;-37.950;145.008;2023-02-10T16:13:15;12;11;
54869;PMS5003;40756;-37.950;145.008;2023-02-10T16:15:45;14;11;
54869;PMS5003;40756;-37.950;145.008;2023-02-10T16:18:17;11;11;
54869;PMS5003;40756;-37.950;145.008;2023-02-10T16:20:49;12;11;
54869;PMS5003;40756;-37.950;145.008;2023-02-10T16:23:19;11;9;
54869;PMS5003;40756;-37.950;145.008;2023-02-10T16:25:48;13;12;
54869;PMS5003;40756;-37.950;145.008;2023-02-10T16:28:18;11;10;